Time;durP1;ratioP1;P1;durP2;ratioP2;P2;SDS_P1;SDS_P2;PMS_P1;PMS_P2;Temp;Humidity;BMP_temperature;BMP_pressure;BME280_temperature;BME280_humidity;BME280_pressure;Samples;Min_cycle;Max_cycle;Signal;HPM_P1;HPM_P2
2022/01/30 00:01:30;;;;;;;1.67;0.95;;;;;;;;;;5004461;28;20041;-65
2022/01/30 00:03:55;;;;;;;1.25;0.90;;;;;;;;;;5001904;28;20073;-65
2022/01/30 00:06:20;;;;;;;1.70;1.00;;;;;;;;;;5050729;28;20041;-65
2022/01/30 00:08:45;;;;;;;1.92;0.95;;;;;;;;;;5058996;28;20799;-67
2022/01/30 00:11:17;;;;;;;1.70;1.02;;;;;;;;;;5061711;28;20020;-66
2022/01/30 00:13:42;;;;;;;2.30;1.00;;;;;;;;;;5067945;28;20483;-65
2022/01/30 00:16:10;;;;;;;1.77;1.15;;;;;;;;;;5063402;28;20029;-66
2022/01/30 00:18:50;;;;;;;1.98;0.98;;;;;;;;;;5062449;28;20021;-66
2022/01/30 00:23:53;;;;;;;2.78;1.00;;;;;;;;;;5064919;28;20472;-66
2022/01/30 00:26:19;;;;;;;2.28;1.17;;;;;;;;;;5060365;28;20157;-65
2022/01/30 00:28:45;;;;;;;1.92;1.00;;;;;;;;;;5057182;28;20059;-66
2022/01/30 00:31:11;;;;;;;1.73;1.10;;;;;;;;;;5069064;28;20097;-67
2022/01/30 00:33:37;;;;;;;1.25;0.80;;;;;;;;;;5063291;28;20040;-66
2022/01/30 00:36:02;;;;;;;2.15;1.23;;;;;;;;;;5063764;28;20384;-66
2022/01/30 00:38:27;;;;;;;1.98;0.90;;;;;;;;;;5066577;28;20047;-66
2022/01/30 00:40:53;;;;;;;1.42;0.88;;;;;;;;;;5064984;28;20043;-65
2022/01/30 00:43:18;;;;;;;1.50;0.90;;;;;;;;;;5062606;28;20422;-66
2022/01/30 00:45:44;;;;;;;0.80;0.70;;;;;;;;;;5067330;28;20036;-66
2022/01/30 00:48:09;;;;;;;1.58;0.70;;;;;;;;;;5066099;28;20029;-66
2022/01/30 00:50:34;;;;;;;1.30;0.80;;;;;;;;;;5064431;28;20388;-65
2022/01/30 00:52:59;;;;;;;0.85;0.70;;;;;;;;;;5066869;28;20099;-65
2022/01/30 00:55:26;;;;;;;1.27;0.88;;;;;;;;;;5054681;28;20104;-65
2022/01/30 00:57:51;;;;;;;1.30;0.82;;;;;;;;;;5068085;28;20028;-66
2022/01/30 01:00:17;;;;;;;1.17;0.65;;;;;;;;;;5064016;28;20052;-66
2022/01/30 01:02:42;;;;;;;0.93;0.60;;;;;;;;;;5065943;28;20032;-66
2022/01/30 01:05:08;;;;;;;0.88;0.70;;;;;;;;;;5067714;28;20384;-65
2022/01/30 01:07:34;;;;;;;0.52;0.50;;;;;;;;;;5067656;28;20060;-65
2022/01/30 01:10:12;;;;;;;1.20;0.60;;;;;;;;;;5064826;28;20438;-65
2022/01/30 01:23:49;;;;;;;0.90;0.70;;;;;;;;;;5065898;28;20502;-67
2022/01/30 01:26:06;;;;;;;0.90;0.70;;;;;;;;;;5053605;28;20047;-65
2022/01/30 01:28:31;;;;;;;1.13;0.73;;;;;;;;;;5061396;28;20029;-66
2022/01/30 01:30:57;;;;;;;0.95;0.80;;;;;;;;;;5065491;28;20028;-66
2022/01/30 01:33:27;;;;;;;0.55;0.50;;;;;;;;;;5058404;28;20116;-66
2022/01/30 01:35:52;;;;;;;0.88;0.63;;;;;;;;;;5065703;28;20047;-65
2022/01/30 01:38:19;;;;;;;0.40;0.40;;;;;;;;;;5068292;28;20467;-66
2022/01/30 01:40:55;;;;;;;0.55;0.47;;;;;;;;;;5062194;28;20032;-66
2022/01/30 01:43:21;;;;;;;1.00;0.75;;;;;;;;;;5057065;28;20032;-66
2022/01/30 01:45:49;;;;;;;0.88;0.60;;;;;;;;;;5067279;28;20031;-66
2022/01/30 01:48:15;;;;;;;0.43;0.43;;;;;;;;;;5066302;28;20111;-66
2022/01/30 01:50:44;;;;;;;1.02;0.68;;;;;;;;;;5062166;28;20144;-66
2022/01/30 01:53:09;;;;;;;;;;;;;;;;;;5060017;28;20383;-65
2022/01/30 01:55:38;;;;;;;0.60;0.57;;;;;;;;;;5062920;28;20371;-66
2022/01/30 01:58:04;;;;;;;0.70;0.50;;;;;;;;;;5056771;28;20275;-65
2022/01/30 02:00:29;;;;;;;0.88;0.43;;;;;;;;;;5063528;28;20025;-65
2022/01/30 02:02:55;;;;;;;0.45;0.45;;;;;;;;;;5061927;28;20028;-65
2022/01/30 02:05:22;;;;;;;1.33;0.65;;;;;;;;;;5061983;28;20066;-64
2022/01/30 02:10:30;;;;;;;1.80;0.60;;;;;;;;;;5060510;28;20033;-65
2022/01/30 02:13:08;;;;;;;0.82;0.63;;;;;;;;;;5058056;28;20036;-65
2022/01/30 02:23:55;;;;;;;1.00;0.50;;;;;;;;;;5058178;28;20059;-65
2022/01/30 02:26:45;;;;;;;0.60;0.60;;;;;;;;;;5060189;28;20067;-67
2022/01/30 02:29:10;;;;;;;0.52;0.50;;;;;;;;;;5057115;28;20021;-66
2022/01/30 02:31:38;;;;;;;1.08;0.50;;;;;;;;;;5063056;28;20124;-65
2022/01/30 02:34:03;;;;;;;0.50;0.50;;;;;;;;;;5057890;28;20024;-66
2022/01/30 02:36:29;;;;;;;0.77;0.60;;;;;;;;;;5059860;28;20173;-65
2022/01/30 02:38:57;;;;;;;0.90;0.70;;;;;;;;;;5060561;28;20098;-65
2022/01/30 02:41:23;;;;;;;0.67;0.50;;;;;;;;;;5063267;28;20094;-65
2022/01/30 02:44:03;;;;;;;1.05;0.60;;;;;;;;;;5062553;28;20060;-65
2022/01/30 02:46:33;;;;;;;0.75;0.50;;;;;;;;;;5058653;28;20056;-65
2022/01/30 02:49:11;;;;;;;1.00;0.50;;;;;;;;;;5060421;28;20021;-64
2022/01/30 02:51:46;;;;;;;0.65;0.40;;;;;;;;;;5057150;28;20499;-65
2022/01/30 02:54:11;;;;;;;0.70;0.52;;;;;;;;;;5060509;28;20040;-66
2022/01/30 02:56:37;;;;;;;0.32;0.30;;;;;;;;;;5061307;28;20455;-65
2022/01/30 02:59:02;;;;;;;0.35;0.32;;;;;;;;;;5059758;28;20021;-65
2022/01/30 03:01:27;;;;;;;1.92;0.50;;;;;;;;;;5057351;28;20115;-65
2022/01/30 03:03:52;;;;;;;0.70;0.40;;;;;;;;;;5060205;28;20032;-66
2022/01/30 03:06:18;;;;;;;0.90;0.50;;;;;;;;;;5057220;28;20359;-64
2022/01/30 03:08:43;;;;;;;0.75;0.60;;;;;;;;;;5056075;28;20020;-66
2022/01/30 03:11:08;;;;;;;0.47;0.40;;;;;;;;;;5061884;28;20012;-66
2022/01/30 03:13:33;;;;;;;0.90;0.60;;;;;;;;;;5059870;28;20183;-65
2022/01/30 03:16:03;;;;;;;0.60;0.60;;;;;;;;;;5063414;28;20032;-65
2022/01/30 03:18:28;;;;;;;0.73;0.60;;;;;;;;;;5060370;28;20051;-64
2022/01/30 03:20:53;;;;;;;0.43;0.38;;;;;;;;;;5065320;28;20040;-66
2022/01/30 03:23:18;;;;;;;1.85;0.52;;;;;;;;;;5062836;28;20020;-66
2022/01/30 03:25:44;;;;;;;1.00;0.60;;;;;;;;;;5060002;28;20124;-65
2022/01/30 03:28:09;;;;;;;1.00;0.70;;;;;;;;;;5059328;28;20237;-64
2022/01/30 03:30:36;;;;;;;1.65;0.60;;;;;;;;;;5065047;28;20047;-65
2022/01/30 03:33:01;;;;;;;0.93;0.50;;;;;;;;;;5062089;28;20020;-64
2022/01/30 03:35:26;;;;;;;1.08;0.50;;;;;;;;;;5056084;28;20036;-65
2022/01/30 03:37:51;;;;;;;1.15;0.60;;;;;;;;;;5057284;28;20025;-65
2022/01/30 03:40:17;;;;;;;0.52;0.50;;;;;;;;;;5058856;28;20040;-65
2022/01/30 03:42:42;;;;;;;0.88;0.60;;;;;;;;;;5064322;28;20094;-65
2022/01/30 03:45:07;;;;;;;1.30;0.73;;;;;;;;;;5063530;28;20098;-65
2022/01/30 03:47:32;;;;;;;1.27;0.70;;;;;;;;;;5061350;28;20456;-65
2022/01/30 03:49:57;;;;;;;0.57;0.57;;;;;;;;;;5063982;28;20034;-65
2022/01/30 03:52:23;;;;;;;0.82;0.52;;;;;;;;;;5057823;28;20025;-65
2022/01/30 03:54:48;;;;;;;1.20;0.82;;;;;;;;;;5070204;28;20390;-65
2022/01/30 03:57:13;;;;;;;1.08;0.60;;;;;;;;;;5067969;28;20078;-64
2022/01/30 03:59:38;;;;;;;0.80;0.52;;;;;;;;;;5065637;28;20059;-65
2022/01/30 04:02:04;;;;;;;0.85;0.60;;;;;;;;;;5060305;28;20032;-65
2022/01/30 04:04:31;;;;;;;1.58;0.70;;;;;;;;;;5065558;28;20032;-65
2022/01/30 04:06:57;;;;;;;0.88;0.60;;;;;;;;;;5064746;28;20072;-64
2022/01/30 04:09:23;;;;;;;0.70;0.60;;;;;;;;;;5061503;28;20183;-65
2022/01/30 04:11:48;;;;;;;1.25;0.70;;;;;;;;;;5065130;28;20568;-66
2022/01/30 04:14:14;;;;;;;1.00;0.70;;;;;;;;;;5064304;28;20039;-66
2022/01/30 04:16:39;;;;;;;1.15;0.80;;;;;;;;;;5067031;28;20438;-65
2022/01/30 04:19:04;;;;;;;0.85;0.70;;;;;;;;;;5063337;28;20031;-65
2022/01/30 04:21:30;;;;;;;1.88;0.70;;;;;;;;;;5062881;28;20161;-65
2022/01/30 04:23:55;;;;;;;0.90;0.60;;;;;;;;;;5067839;28;20047;-66
2022/01/30 04:26:20;;;;;;;1.35;0.80;;;;;;;;;;5067278;28;20024;-65
2022/01/30 04:28:45;;;;;;;1.70;1.17;;;;;;;;;;5061016;28;20028;-65
2022/01/30 04:31:12;;;;;;;1.15;0.70;;;;;;;;;;5065629;28;20070;-65
2022/01/30 04:33:38;;;;;;;1.45;0.70;;;;;;;;;;5069706;28;20013;-65
2022/01/30 04:36:06;;;;;;;0.70;0.63;;;;;;;;;;5060771;28;20073;-65
2022/01/30 04:38:42;;;;;;;0.93;0.73;;;;;;;;;;5066319;28;20046;-65
2022/01/30 04:41:30;;;;;;;1.10;0.82;;;;;;;;;;5061635;28;20432;-65
2022/01/30 04:57:59;;;;;;;1.67;0.93;;;;;;;;;;5001987;28;20039;-65
2022/01/30 05:08:27;;;;;;;1.50;1.10;;;;;;;;;;4947555;28;20499;-64
2022/01/30 05:10:53;;;;;;;2.22;1.27;;;;;;;;;;4948088;29;20463;-64
2022/01/30 05:13:22;;;;;;;2.28;1.50;;;;;;;;;;4942579;29;20039;-64
2022/01/30 05:15:47;;;;;;;2.92;1.45;;;;;;;;;;4947724;28;20604;-65
2022/01/30 05:18:20;;;;;;;2.10;1.20;;;;;;;;;;4947869;29;20035;-65
2022/01/30 05:20:45;;;;;;;3.17;1.60;;;;;;;;;;4943518;28;20038;-65
2022/01/30 05:23:11;;;;;;;1.92;1.33;;;;;;;;;;4946789;28;20423;-65
2022/01/30 05:25:37;;;;;;;2.40;1.20;;;;;;;;;;4944419;28;20043;-65
2022/01/30 05:28:06;;;;;;;2.42;1.38;;;;;;;;;;4945479;29;20018;-64
2022/01/30 05:30:31;;;;;;;1.45;1.10;;;;;;;;;;4944923;28;20027;-64
2022/01/30 05:32:56;;;;;;;2.28;1.30;;;;;;;;;;4976795;28;20403;-65
2022/01/30 05:35:22;;;;;;;2.85;1.30;;;;;;;;;;4985651;28;20126;-65
2022/01/30 05:37:47;;;;;;;2.05;1.48;;;;;;;;;;4986234;28;20109;-69
2022/01/30 05:40:13;;;;;;;2.15;1.40;;;;;;;;;;4985501;28;20030;-64
2022/01/30 05:42:39;;;;;;;2.13;1.40;;;;;;;;;;5034496;28;20032;-65
2022/01/30 05:45:17;;;;;;;3.97;1.80;;;;;;;;;;5060708;28;20074;-65
2022/01/30 05:47:50;;;;;;;2.58;1.77;;;;;;;;;;5064569;28;20028;-64
2022/01/30 05:50:15;;;;;;;2.90;1.98;;;;;;;;;;5059591;28;20119;-66
2022/01/30 05:52:41;;;;;;;3.28;2.00;;;;;;;;;;5061067;28;20030;-65
2022/01/30 05:55:06;;;;;;;3.30;2.35;;;;;;;;;;5060969;28;20542;-64
2022/01/30 05:57:31;;;;;;;4.65;2.47;;;;;;;;;;5056268;28;20032;-65
2022/01/30 05:59:56;;;;;;;4.95;2.65;;;;;;;;;;5061489;28;20534;-65
2022/01/30 06:02:21;;;;;;;3.83;2.40;;;;;;;;;;5064248;28;20032;-65
2022/01/30 06:04:47;;;;;;;4.97;2.80;;;;;;;;;;5064074;28;20480;-66
2022/01/30 06:07:13;;;;;;;3.78;2.47;;;;;;;;;;5065385;28;20040;-64
2022/01/30 06:09:38;;;;;;;4.40;2.13;;;;;;;;;;5061401;28;20032;-65
2022/01/30 06:12:04;;;;;;;4.05;2.25;;;;;;;;;;5061739;28;20044;-64
2022/01/30 06:14:29;;;;;;;3.95;2.47;;;;;;;;;;5064161;28;20051;-65
2022/01/30 06:16:54;;;;;;;4.13;2.45;;;;;;;;;;5066779;28;20027;-65
2022/01/30 06:19:22;;;;;;;4.22;2.92;;;;;;;;;;5060826;28;20017;-64
2022/01/30 06:21:47;;;;;;;5.13;3.53;;;;;;;;;;5054796;28;20032;-64
2022/01/30 06:24:12;;;;;;;5.15;3.40;;;;;;;;;;5058619;28;20047;-64
2022/01/30 06:26:37;;;;;;;5.57;3.28;;;;;;;;;;5066865;28;20044;-65
2022/01/30 06:29:03;;;;;;;4.90;3.00;;;;;;;;;;5059688;28;20109;-65
2022/01/30 06:31:28;;;;;;;7.05;3.30;;;;;;;;;;5062490;28;20448;-64
2022/01/30 06:33:53;;;;;;;4.72;2.85;;;;;;;;;;5059717;28;20108;-65
2022/01/30 06:36:18;;;;;;;5.07;2.88;;;;;;;;;;5064598;28;20029;-65
2022/01/30 06:38:44;;;;;;;6.20;3.20;;;;;;;;;;5059458;28;20052;-65
2022/01/30 06:41:09;;;;;;;4.60;3.47;;;;;;;;;;5067603;28;20032;-65
2022/01/30 06:43:34;;;;;;;5.32;3.58;;;;;;;;;;5061416;28;20020;-65
2022/01/30 06:45:59;;;;;;;5.68;3.47;;;;;;;;;;5065478;28;20540;-64
2022/01/30 06:48:24;;;;;;;4.55;3.20;;;;;;;;;;5065229;28;20016;-65
2022/01/30 06:50:50;;;;;;;4.30;3.13;;;;;;;;;;5059693;28;20036;-64
2022/01/30 06:53:15;;;;;;;4.22;3.00;;;;;;;;;;5063017;28;20028;-65
2022/01/30 06:55:42;;;;;;;3.96;2.60;;;;;;;;;;5058136;28;20020;-65
2022/01/30 06:58:12;;;;;;;4.03;2.78;;;;;;;;;;5066296;28;20460;-66
2022/01/30 07:00:37;;;;;;;3.70;2.50;;;;;;;;;;5059069;28;20059;-65
2022/01/30 07:03:02;;;;;;;4.53;2.20;;;;;;;;;;5064669;28;20048;-65
2022/01/30 07:05:27;;;;;;;3.17;2.13;;;;;;;;;;5063655;28;20036;-66
2022/01/30 07:07:53;;;;;;;3.67;1.77;;;;;;;;;;5061215;28;20056;-66
2022/01/30 07:10:18;;;;;;;3.22;1.70;;;;;;;;;;5056625;28;20037;-66
2022/01/30 07:12:44;;;;;;;3.03;1.80;;;;;;;;;;5060388;28;20033;-66
2022/01/30 07:15:09;;;;;;;3.70;1.80;;;;;;;;;;5064855;28;20407;-65
2022/01/30 07:17:34;;;;;;;2.33;1.60;;;;;;;;;;5062615;28;20033;-64
2022/01/30 07:20:00;;;;;;;3.83;2.10;;;;;;;;;;5064464;28;20046;-65
2022/01/30 07:22:27;;;;;;;3.50;1.85;;;;;;;;;;5057121;28;20020;-65
2022/01/30 07:24:53;;;;;;;2.88;1.80;;;;;;;;;;5059141;28;20024;-65
2022/01/30 07:27:18;;;;;;;3.72;1.83;;;;;;;;;;5066569;28;20125;-65
2022/01/30 07:29:43;;;;;;;2.50;1.60;;;;;;;;;;5069013;28;20059;-64
2022/01/30 07:32:08;;;;;;;3.15;1.95;;;;;;;;;;5062869;28;20029;-65
2022/01/30 07:34:33;;;;;;;2.13;1.60;;;;;;;;;;5071413;28;20075;-65
2022/01/30 07:36:58;;;;;;;2.55;1.50;;;;;;;;;;5062843;28;20032;-66
2022/01/30 07:39:28;;;;;;;2.70;1.30;;;;;;;;;;5070078;28;20025;-66
2022/01/30 07:41:53;;;;;;;2.30;1.58;;;;;;;;;;5069028;28;20032;-65
2022/01/30 07:44:18;;;;;;;2.42;1.60;;;;;;;;;;5066616;28;20036;-66
2022/01/30 07:46:43;;;;;;;2.35;1.33;;;;;;;;;;5069372;28;20024;-66
2022/01/30 07:49:09;;;;;;;2.67;1.10;;;;;;;;;;5069125;28;20101;-65
2022/01/30 07:51:34;;;;;;;2.28;1.40;;;;;;;;;;5067208;28;20127;-64
2022/01/30 07:53:59;;;;;;;1.70;1.20;;;;;;;;;;5059469;28;20017;-65
2022/01/30 07:56:24;;;;;;;4.45;1.92;;;;;;;;;;5067275;28;20056;-65
2022/01/30 07:58:49;;;;;;;2.53;1.60;;;;;;;;;;5068167;28;20021;-65
2022/01/30 08:01:15;;;;;;;2.15;1.20;;;;;;;;;;5061909;28;20040;-66
2022/01/30 08:03:40;;;;;;;5.76;1.42;;;;;;;;;;5061868;28;20083;-65
2022/01/30 08:06:05;;;;;;;3.65;1.48;;;;;;;;;;5063311;28;20086;-64
2022/01/30 08:08:30;;;;;;;5.72;1.80;;;;;;;;;;5066909;28;20031;-65
2022/01/30 08:10:55;;;;;;;5.20;1.45;;;;;;;;;;5060741;28;20107;-66
2022/01/30 08:13:20;;;;;;;5.68;1.84;;;;;;;;;;5069235;28;20042;-66
2022/01/30 08:15:46;;;;;;;5.47;1.73;;;;;;;;;;5065216;28;20365;-65
2022/01/30 08:18:11;;;;;;;10.48;2.47;;;;;;;;;;5062944;28;20025;-65
2022/01/30 08:20:37;;;;;;;6.60;1.73;;;;;;;;;;5068222;28;20029;-64
2022/01/30 08:23:08;;;;;;;6.40;2.05;;;;;;;;;;5068706;28;20036;-65
2022/01/30 08:25:33;;;;;;;6.82;2.28;;;;;;;;;;5063166;28;20048;-65
2022/01/30 08:27:58;;;;;;;5.72;1.70;;;;;;;;;;5068156;28;20052;-65
2022/01/30 08:30:24;;;;;;;5.40;1.50;;;;;;;;;;5062885;28;20028;-65
2022/01/30 08:32:49;;;;;;;3.47;1.38;;;;;;;;;;5066851;28;20024;-64
2022/01/30 08:35:16;;;;;;;3.38;1.17;;;;;;;;;;5061663;28;20021;-65
2022/01/30 08:37:41;;;;;;;4.32;2.08;;;;;;;;;;5069252;28;20056;-66
2022/01/30 08:40:12;;;;;;;3.22;1.00;;;;;;;;;;5070376;28;20051;-67
2022/01/30 08:42:37;;;;;;;2.83;1.25;;;;;;;;;;5067922;28;20033;-64
2022/01/30 08:45:04;;;;;;;3.92;1.05;;;;;;;;;;5064769;28;20036;-65
2022/01/30 08:47:29;;;;;;;2.70;1.00;;;;;;;;;;5070541;28;20094;-65
2022/01/30 08:49:54;;;;;;;3.22;1.00;;;;;;;;;;5064949;28;20032;-65
2022/01/30 08:52:19;;;;;;;1.95;0.90;;;;;;;;;;5065369;28;20024;-65
2022/01/30 08:54:53;;;;;;;3.00;1.00;;;;;;;;;;5058009;28;20033;-65
2022/01/30 08:57:18;;;;;;;2.15;1.08;;;;;;;;;;5066832;28;20641;-66
2022/01/30 08:59:44;;;;;;;2.22;1.10;;;;;;;;;;5064910;28;20016;-65
2022/01/30 09:02:09;;;;;;;4.32;1.20;;;;;;;;;;5062555;28;20388;-61
2022/01/30 09:04:34;;;;;;;3.60;1.27;;;;;;;;;;5062551;28;20376;-61
2022/01/30 09:06:59;;;;;;;3.63;1.00;;;;;;;;;;5063020;28;20094;-62
2022/01/30 09:09:25;;;;;;;5.18;1.33;;;;;;;;;;5064913;28;20048;-61
2022/01/30 09:11:50;;;;;;;5.45;1.30;;;;;;;;;;5069444;28;20106;-61
2022/01/30 09:14:16;;;;;;;4.07;1.85;;;;;;;;;;5062666;28;20943;-62
2022/01/30 09:16:42;;;;;;;4.10;1.38;;;;;;;;;;5056702;28;20430;-61
2022/01/30 09:19:07;;;;;;;2.55;1.00;;;;;;;;;;5066849;28;20494;-61
2022/01/30 09:21:32;;;;;;;6.18;1.30;;;;;;;;;;5064148;28;20039;-61
2022/01/30 09:23:57;;;;;;;3.33;0.98;;;;;;;;;;5057128;28;20369;-62
2022/01/30 09:26:23;;;;;;;3.97;1.27;;;;;;;;;;5058920;28;20105;-63
2022/01/30 09:28:48;;;;;;;4.40;1.50;;;;;;;;;;5065200;28;20032;-62
2022/01/30 09:31:13;;;;;;;5.22;1.60;;;;;;;;;;5069406;28;20028;-61
2022/01/30 09:33:39;;;;;;;5.88;1.70;;;;;;;;;;5062836;28;20028;-62
2022/01/30 09:36:04;;;;;;;6.50;1.65;;;;;;;;;;5065378;28;20029;-60
2022/01/30 09:38:29;;;;;;;4.85;1.63;;;;;;;;;;5061319;28;20086;-61
2022/01/30 09:40:56;;;;;;;7.13;1.70;;;;;;;;;;5062550;28;20033;-61
2022/01/30 09:43:21;;;;;;;6.13;1.42;;;;;;;;;;5067090;28;20036;-62
2022/01/30 09:45:46;;;;;;;8.10;1.70;;;;;;;;;;5061229;28;20094;-62
2022/01/30 09:48:12;;;;;;;7.47;2.13;;;;;;;;;;5064168;28;20024;-61
2022/01/30 09:50:39;;;;;;;4.85;1.77;;;;;;;;;;5066208;28;20345;-61
2022/01/30 09:53:04;;;;;;;4.80;1.30;;;;;;;;;;5066698;28;20658;-60
2022/01/30 09:55:29;;;;;;;8.23;2.00;;;;;;;;;;5054640;28;20128;-60
2022/01/30 09:57:54;;;;;;;5.35;1.98;;;;;;;;;;5063449;28;20017;-61
2022/01/30 10:00:19;;;;;;;6.40;1.90;;;;;;;;;;5067235;28;20435;-61
2022/01/30 10:02:45;;;;;;;6.95;1.80;;;;;;;;;;5057140;28;20028;-61
2022/01/30 10:05:11;;;;;;;9.80;2.15;;;;;;;;;;5061525;28;20024;-61
2022/01/30 10:07:40;;;;;;;5.10;2.20;;;;;;;;;;5064926;28;20045;-61
2022/01/30 10:10:06;;;;;;;8.32;2.63;;;;;;;;;;5065061;28;20029;-61
2022/01/30 10:12:33;;;;;;;8.15;2.30;;;;;;;;;;5058948;28;20377;-62
2022/01/30 10:15:00;;;;;;;7.85;2.10;;;;;;;;;;5065071;28;20021;-61
2022/01/30 10:17:28;;;;;;;6.88;2.45;;;;;;;;;;5064836;28;20021;-62
2022/01/30 10:20:00;;;;;;;6.85;2.00;;;;;;;;;;5061661;28;20028;-63
2022/01/30 10:22:25;;;;;;;8.35;2.20;;;;;;;;;;5059578;28;20055;-62
2022/01/30 10:24:50;;;;;;;7.57;2.08;;;;;;;;;;5057765;28;20055;-61
2022/01/30 10:27:19;;;;;;;8.13;2.38;;;;;;;;;;5060651;28;20025;-62
2022/01/30 10:29:45;;;;;;;5.10;1.80;;;;;;;;;;5068837;28;20364;-62
2022/01/30 10:32:10;;;;;;;6.68;1.98;;;;;;;;;;5067524;28;20035;-61
2022/01/30 10:34:37;;;;;;;7.85;2.75;;;;;;;;;;5060924;28;20380;-62
2022/01/30 10:37:14;;;;;;;5.78;2.45;;;;;;;;;;5054544;28;20029;-63
2022/01/30 10:39:53;;;;;;;11.38;2.47;;;;;;;;;;5056623;28;20120;-62
2022/01/30 10:42:30;;;;;;;8.88;2.20;;;;;;;;;;5062368;28;20103;-62
2022/01/30 10:44:55;;;;;;;7.30;2.35;;;;;;;;;;5065388;28;20020;-60
2022/01/30 10:47:21;;;;;;;4.72;2.30;;;;;;;;;;5068465;28;20436;-61
2022/01/30 10:49:47;;;;;;;11.40;3.08;;;;;;;;;;5061386;28;20043;-61
2022/01/30 10:52:13;;;;;;;7.22;2.10;;;;;;;;;;5047886;28;20384;-61
2022/01/30 10:54:38;;;;;;;12.38;2.65;;;;;;;;;;5060483;28;20078;-63
2022/01/30 10:57:06;;;;;;;6.05;2.15;;;;;;;;;;5068012;28;20588;-61
2022/01/30 10:59:31;;;;;;;10.10;2.13;;;;;;;;;;5068074;28;20028;-61
2022/01/30 11:02:09;;;;;;;5.53;1.73;;;;;;;;;;5067058;28;20039;-62
2022/01/30 11:04:34;;;;;;;7.68;2.40;;;;;;;;;;5060480;28;20036;-62
2022/01/30 11:07:01;;;;;;;7.85;2.10;;;;;;;;;;5067957;28;20162;-61
2022/01/30 11:09:34;;;;;;;8.63;2.20;;;;;;;;;;5062414;28;20488;-62
2022/01/30 11:12:03;;;;;;;7.65;2.33;;;;;;;;;;5067351;28;20103;-61
2022/01/30 11:15:16;;;;;;;5.82;1.83;;;;;;;;;;5062766;28;20475;-61
2022/01/30 11:17:23;;;;;;;7.28;1.90;;;;;;;;;;5067035;28;20086;-61
2022/01/30 11:19:51;;;;;;;11.93;1.90;;;;;;;;;;5067985;28;20017;-61
2022/01/30 11:22:20;;;;;;;4.90;1.60;;;;;;;;;;5064549;28;20385;-61
2022/01/30 11:24:47;;;;;;;6.10;2.03;;;;;;;;;;5068099;28;20111;-61
2022/01/30 11:27:13;;;;;;;5.85;1.83;;;;;;;;;;5064694;28;20028;-62
2022/01/30 11:29:38;;;;;;;5.97;1.70;;;;;;;;;;5060998;28;20050;-61
2022/01/30 11:32:06;;;;;;;10.73;2.03;;;;;;;;;;5062605;28;20032;-62
2022/01/30 11:34:32;;;;;;;5.82;1.80;;;;;;;;;;5054367;28;20116;-61
2022/01/30 11:36:57;;;;;;;4.75;1.67;;;;;;;;;;5062849;28;20597;-62
2022/01/30 11:39:22;;;;;;;7.20;1.88;;;;;;;;;;5063992;28;20333;-62
2022/01/30 11:42:06;;;;;;;4.80;1.30;;;;;;;;;;5059633;28;20095;-62
2022/01/30 11:44:31;;;;;;;3.63;1.33;;;;;;;;;;5064574;28;20032;-61
2022/01/30 11:46:57;;;;;;;6.10;1.40;;;;;;;;;;5065797;28;20050;-61
2022/01/30 11:49:24;;;;;;;4.57;1.52;;;;;;;;;;5057996;28;20051;-62
2022/01/30 11:51:49;;;;;;;7.00;1.63;;;;;;;;;;5058357;28;20070;-62
2022/01/30 11:54:33;;;;;;;3.92;1.27;;;;;;;;;;5065194;28;20419;-64
2022/01/30 11:56:59;;;;;;;4.43;1.38;;;;;;;;;;5059611;28;20709;-62
2022/01/30 11:59:37;;;;;;;5.28;1.52;;;;;;;;;;5055826;28;20155;-62
2022/01/30 12:02:21;;;;;;;8.10;1.77;;;;;;;;;;5061461;28;20039;-61
2022/01/30 12:05:06;;;;;;;3.78;1.55;;;;;;;;;;5066176;28;20024;-62
2022/01/30 12:07:32;;;;;;;8.13;1.45;;;;;;;;;;5064092;28;20076;-61
2022/01/30 12:10:16;;;;;;;9.15;2.08;;;;;;;;;;5060415;28;20048;-63
2022/01/30 12:13:04;;;;;;;6.53;1.83;;;;;;;;;;5057234;28;20140;-63
2022/01/30 12:15:38;;;;;;;6.05;1.70;;;;;;;;;;5063489;28;20261;-62
2022/01/30 12:18:23;;;;;;;3.53;1.77;;;;;;;;;;5069583;28;20036;-61
2022/01/30 12:20:59;;;;;;;7.03;1.60;;;;;;;;;;5043137;28;20084;-61
2022/01/30 12:23:25;;;;;;;7.15;1.70;;;;;;;;;;5040990;28;20071;-61
2022/01/30 12:26:05;;;;;;;5.75;1.80;;;;;;;;;;5042450;28;20068;-62
2022/01/30 12:28:30;;;;;;;;;;;;;;;;;;5048574;28;20050;-62
2022/01/30 12:30:55;;;;;;;7.55;2.38;;;;;;;;;;5043297;28;19913;-65
2022/01/30 12:33:34;;;;;;;8.68;1.98;;;;;;;;;;5042440;28;20056;-60
2022/01/30 12:36:00;;;;;;;4.60;1.50;;;;;;;;;;5048512;28;20649;-70
2022/01/30 12:38:34;;;;;;;8.80;1.98;;;;;;;;;;5044425;28;20072;-70
2022/01/30 12:41:00;;;;;;;7.53;1.77;;;;;;;;;;5045213;28;20033;-69
2022/01/30 12:43:31;;;;;;;6.03;1.50;;;;;;;;;;5024157;28;20029;-70
2022/01/30 12:46:06;;;;;;;5.93;1.45;;;;;;;;;;5042613;28;20127;-72
2022/01/30 12:48:31;;;;;;;10.18;2.58;;;;;;;;;;5043139;28;20383;-70
2022/01/30 12:51:03;;;;;;;3.38;1.38;;;;;;;;;;5047398;28;20364;-69
2022/01/30 12:53:29;;;;;;;5.32;1.58;;;;;;;;;;5042294;28;20502;-69
2022/01/30 12:55:54;;;;;;;4.10;1.25;;;;;;;;;;5047277;28;20112;-69
2022/01/30 12:58:20;;;;;;;6.85;1.48;;;;;;;;;;5053422;28;20208;-69
2022/01/30 13:00:45;;;;;;;4.22;1.17;;;;;;;;;;5069285;28;20094;-70
2022/01/30 13:03:18;;;;;;;9.25;1.65;;;;;;;;;;5065295;28;20052;-70
2022/01/30 13:05:44;;;;;;;9.23;2.10;;;;;;;;;;5065455;28;20581;-70
2022/01/30 13:08:09;;;;;;;6.68;1.70;;;;;;;;;;5068992;28;20052;-69
2022/01/30 13:10:34;;;;;;;7.40;1.92;;;;;;;;;;5063397;28;20032;-70
2022/01/30 13:13:00;;;;;;;5.53;1.35;;;;;;;;;;5064782;28;20036;-70
2022/01/30 13:15:25;;;;;;;6.63;1.60;;;;;;;;;;5063612;28;20033;-71
2022/01/30 13:17:51;;;;;;;8.00;2.47;;;;;;;;;;5069163;28;20468;-69
2022/01/30 13:20:20;;;;;;;6.25;1.98;;;;;;;;;;5064336;28;20375;-68
2022/01/30 13:22:46;;;;;;;5.55;1.50;;;;;;;;;;5068387;28;20111;-70
2022/01/30 13:25:13;;;;;;;8.88;2.17;;;;;;;;;;5066845;28;20733;-69
2022/01/30 13:27:40;;;;;;;4.68;1.50;;;;;;;;;;5068299;28;20120;-70
2022/01/30 13:30:05;;;;;;;7.18;1.55;;;;;;;;;;5063075;28;20024;-72
2022/01/30 13:32:31;;;;;;;4.47;1.40;;;;;;;;;;5066068;28;20025;-69
2022/01/30 13:34:58;;;;;;;6.25;1.90;;;;;;;;;;5062145;28;20027;-69
2022/01/30 13:37:23;;;;;;;7.32;1.92;;;;;;;;;;5064035;28;20467;-70
2022/01/30 13:48:21;;;;;;;4.32;1.35;;;;;;;;;;5069163;28;20028;-71
2022/01/30 13:50:53;;;;;;;7.20;1.35;;;;;;;;;;5040355;28;20041;-70
2022/01/30 13:53:20;;;;;;;6.10;1.55;;;;;;;;;;5043358;28;20037;-70
2022/01/30 13:55:51;;;;;;;7.32;1.60;;;;;;;;;;5036149;28;20115;-70
2022/01/30 13:58:18;;;;;;;8.63;1.52;;;;;;;;;;5039997;28;20033;-69
2022/01/30 14:00:44;;;;;;;5.65;1.30;;;;;;;;;;5045711;28;20037;-69
2022/01/30 14:03:09;;;;;;;6.65;1.40;;;;;;;;;;5040402;28;20032;-70
2022/01/30 14:05:39;;;;;;;4.65;1.30;;;;;;;;;;5044478;28;20514;-70
2022/01/30 14:08:12;;;;;;;6.57;1.45;;;;;;;;;;5038254;28;20045;-70
2022/01/30 14:10:37;;;;;;;6.15;1.65;;;;;;;;;;5041378;28;20365;-69
2022/01/30 14:13:12;;;;;;;5.15;1.40;;;;;;;;;;5036567;28;20175;-69
2022/01/30 14:15:37;;;;;;;7.38;1.60;;;;;;;;;;5039505;28;20040;-69
2022/01/30 14:18:06;;;;;;;3.63;1.27;;;;;;;;;;5035860;28;20025;-70
2022/01/30 14:20:32;;;;;;;4.80;1.40;;;;;;;;;;5036089;28;20536;-70
2022/01/30 14:23:08;;;;;;;5.30;1.70;;;;;;;;;;5044265;28;20283;-69
2022/01/30 14:25:33;;;;;;;6.05;1.55;;;;;;;;;;5042641;28;20032;-70
2022/01/30 14:27:59;;;;;;;6.43;1.60;;;;;;;;;;5067749;28;20468;-70
2022/01/30 14:30:39;;;;;;;6.78;1.65;;;;;;;;;;5057554;28;20009;-70
2022/01/30 14:33:05;;;;;;;5.63;1.75;;;;;;;;;;5057987;28;20020;-67
2022/01/30 14:35:35;;;;;;;6.97;1.60;;;;;;;;;;5061558;28;20170;-69
2022/01/30 14:38:02;;;;;;;6.13;1.40;;;;;;;;;;5063789;28;20395;-69
2022/01/30 14:40:27;;;;;;;5.95;1.45;;;;;;;;;;5062371;28;20028;-72
2022/01/30 14:42:53;;;;;;;4.00;1.15;;;;;;;;;;5055861;28;20506;-69
2022/01/30 14:45:18;;;;;;;7.47;1.50;;;;;;;;;;5061949;28;20024;-69
2022/01/30 14:47:43;;;;;;;4.83;1.60;;;;;;;;;;5067575;28;20044;-69
2022/01/30 14:50:08;;;;;;;6.35;1.33;;;;;;;;;;5067164;28;20362;-69
2022/01/30 14:52:33;;;;;;;5.28;1.40;;;;;;;;;;5065146;28;20031;-69
2022/01/30 14:54:58;;;;;;;7.95;1.60;;;;;;;;;;5061288;28;20024;-71
2022/01/30 14:57:24;;;;;;;5.05;1.40;;;;;;;;;;5065058;28;20087;-71
2022/01/30 14:59:49;;;;;;;7.47;1.80;;;;;;;;;;5063125;28;20107;-71
2022/01/30 15:02:15;;;;;;;7.35;1.48;;;;;;;;;;5065521;28;20091;-72
2022/01/30 15:04:40;;;;;;;6.18;1.75;;;;;;;;;;5064923;28;20025;-71
2022/01/30 15:07:06;;;;;;;10.80;1.88;;;;;;;;;;5065894;28;20040;-71
2022/01/30 15:09:32;;;;;;;3.90;1.42;;;;;;;;;;5068690;28;20051;-71
2022/01/30 15:11:57;;;;;;;7.45;1.73;;;;;;;;;;5063937;28;20032;-72
2022/01/30 15:14:25;;;;;;;4.78;1.80;;;;;;;;;;5062590;28;20371;-73
2022/01/30 15:16:51;;;;;;;8.43;1.50;;;;;;;;;;5061230;28;20028;-72
2022/01/30 15:19:19;;;;;;;4.35;1.45;;;;;;;;;;5068083;28;20017;-72
2022/01/30 15:21:45;;;;;;;7.45;1.73;;;;;;;;;;5058924;28;20035;-72
2022/01/30 15:24:10;;;;;;;9.20;1.85;;;;;;;;;;5067814;28;20537;-71
2022/01/30 15:26:36;;;;;;;6.32;2.17;;;;;;;;;;5065417;28;20025;-71
2022/01/30 15:29:03;;;;;;;6.68;1.67;;;;;;;;;;5067733;28;20033;-72
2022/01/30 15:31:28;;;;;;;6.72;1.75;;;;;;;;;;5067729;28;20024;-71
2022/01/30 15:33:53;;;;;;;7.48;1.78;;;;;;;;;;5065644;28;20054;-72
2022/01/30 15:36:18;;;;;;;5.88;1.48;;;;;;;;;;5063123;28;20040;-66
2022/01/30 15:51:40;;;;;;;7.32;1.95;;;;;;;;;;5906051;23;20051;-83